Time;durP1;ratioP1;P1;durP2;ratioP2;P2;SDS_P1;SDS_P2;PMS_P1;PMS_P2;Temp;Humidity;BMP_temperature;BMP_pressure;BME280_temperature;BME280_humidity;BME280_pressure;Samples;Min_cycle;Max_cycle;Signal;HPM_P1;HPM_P2
2022/10/05 00:00:18;;;;;;;;;5.00;4.00;;;;;16.77;100.00;101664.53;5096616;27;45401;-72
2022/10/05 00:02:45;;;;;;;;;6.67;5.00;;;;;16.69;100.00;101663.63;5098049;27;45460;-72
2022/10/05 00:05:22;;;;;;;;;5.67;5.00;;;;;16.68;100.00;101669.88;5079383;27;46442;-72
2022/10/05 00:07:48;;;;;;;;;7.33;6.00;;;;;16.60;100.00;101663.63;5082008;27;45487;-72
2022/10/05 00:10:16;;;;;;;;;5.00;5.00;;;;;16.57;100.00;101660.09;5046169;28;45469;-73
2022/10/05 00:12:44;;;;;;;;;6.00;4.00;;;;;16.55;100.00;101657.41;5083385;27;45308;-72
2022/10/05 00:15:11;;;;;;;;;5.00;5.00;;;;;16.53;100.00;101655.66;5084362;27;46425;-73
2022/10/05 00:17:37;;;;;;;;;5.00;5.00;;;;;16.52;100.00;101648.56;5087450;27;45215;-73
2022/10/05 00:20:23;;;;;;;;;5.00;5.00;;;;;16.55;100.00;101653.88;5088566;27;45504;-72
2022/10/05 00:22:56;;;;;;;;;8.00;6.00;;;;;16.53;100.00;101651.22;5065998;27;45312;-72
2022/10/05 00:25:21;;;;;;;;;5.00;5.00;;;;;16.51;100.00;101647.63;5087484;27;46509;-72
2022/10/05 00:27:56;;;;;;;;;5.67;5.67;;;;;16.51;100.00;101650.31;5092036;27;45345;-72
2022/10/05 00:30:22;;;;;;;;;6.00;5.00;;;;;16.56;100.00;101648.53;5089778;27;45254;-72
2022/10/05 00:32:48;;;;;;;;;5.00;5.00;;;;;16.56;100.00;101636.97;5066687;28;45512;-72
2022/10/05 00:35:15;;;;;;;;;6.33;5.00;;;;;16.57;100.00;101637.00;5075570;27;47348;-72
2022/10/05 00:37:41;;;;;;;;;6.00;6.00;;;;;16.61;100.00;101633.41;5082791;27;45428;-72
2022/10/05 00:40:18;;;;;;;;;7.67;6.33;;;;;16.61;100.00;101635.19;5070315;22;49580;-72
2022/10/05 00:42:58;;;;;;;;;6.00;6.00;;;;;16.65;100.00;101635.19;5037413;28;45261;-72
2022/10/05 00:45:28;;;;;;;;;6.00;6.00;;;;;16.68;100.00;101636.97;5036909;28;47689;-72
2022/10/05 00:48:04;;;;;;;;;6.00;5.67;;;;;16.70;100.00;101633.41;5037265;28;45236;-72
2022/10/05 00:50:44;;;;;;;;;5.00;5.00;;;;;16.70;100.00;101630.75;5019006;28;45327;-72
2022/10/05 00:53:09;;;;;;;;;6.00;6.00;;;;;16.74;100.00;101634.34;5037010;28;45338;-72
2022/10/05 00:55:43;;;;;;;;;6.67;6.00;;;;;16.75;100.00;101626.31;5036717;28;45887;-73
2022/10/05 00:58:47;;;;;;;;;5.33;4.33;;;;;16.76;100.00;101633.44;5042078;28;45425;-72
2022/10/05 01:01:18;;;;;;;;;4.00;4.00;;;;;16.77;100.00;101637.88;4955738;28;45501;-72
2022/10/05 01:04:12;;;;;;;;;6.67;6.00;;;;;16.80;100.00;101630.78;5024287;28;45492;-72
2022/10/05 01:06:48;;;;;;;;;5.00;5.00;;;;;16.87;100.00;101629.84;5036723;28;46081;-73
2022/10/05 01:09:40;;;;;;;;;6.00;6.00;;;;;16.89;100.00;101623.66;5036662;28;45299;-73
2022/10/05 01:12:35;;;;;;;;;6.00;6.00;;;;;16.94;100.00;101631.63;5028175;28;45351;-73
2022/10/05 01:15:10;;;;;;;;;5.00;5.00;;;;;16.97;100.00;101629.81;5035344;28;45423;-73
2022/10/05 01:17:53;;;;;;;;;6.33;6.33;;;;;17.00;100.00;101632.50;5018779;28;46740;-72
2022/10/05 01:20:27;;;;;;;;;7.67;6.00;;;;;17.05;100.00;101623.59;5036585;28;45349;-73
2022/10/05 01:23:39;;;;;;;;;9.33;7.33;;;;;17.11;100.00;101623.59;5036530;28;45583;-72
2022/10/05 01:26:25;;;;;;;;;8.33;8.33;;;;;17.13;100.00;101628.00;4939717;28;45418;-73
2022/10/05 01:29:18;;;;;;;;;8.00;8.00;;;;;17.21;100.00;101625.31;4955516;28;46829;-72
2022/10/05 01:31:54;;;;;;;;;10.00;9.33;;;;;17.23;100.00;101613.75;5021779;28;45280;-73
2022/10/05 01:34:31;;;;;;;;;10.67;9.67;;;;;17.27;100.00;101622.63;5036164;28;45244;-73
2022/10/05 01:37:14;;;;;;;;;7.00;7.00;;;;;17.32;100.00;101609.28;5036704;28;46911;-72
2022/10/05 01:40:06;;;;;;;;;8.33;8.33;;;;;17.34;100.00;101607.47;5026006;28;47680;-72
2022/10/05 01:42:50;;;;;;;;;8.67;8.00;;;;;17.38;100.00;101604.78;5021457;28;45541;-72
2022/10/05 01:45:21;;;;;;;;;10.33;7.00;;;;;17.40;100.00;101599.44;5036329;28;45439;-72
2022/10/05 01:47:59;;;;;;;;;8.00;6.67;;;;;17.39;100.00;101592.31;5036132;28;45423;-72
2022/10/05 01:50:55;;;;;;;;;8.00;7.00;;;;;17.43;100.00;101599.44;5018151;28;47587;-73
2022/10/05 01:53:30;;;;;;;;;7.67;7.00;;;;;17.43;100.00;101592.31;5011343;28;45495;-72
2022/10/05 01:56:11;;;;;;;;;7.33;7.33;;;;;17.42;100.00;101590.53;5018207;28;45432;-72
2022/10/05 01:58:46;;;;;;;;;6.00;6.00;;;;;17.45;100.00;101592.28;5041831;28;45633;-72
2022/10/05 02:01:37;;;;;;;;;8.00;6.00;;;;;17.47;100.00;101583.38;5036011;28;46732;-72
2022/10/05 02:04:45;;;;;;;;;7.00;6.00;;;;;17.51;100.00;101584.25;5018188;28;45360;-73
2022/10/05 02:07:17;;;;;;;;;6.00;4.67;;;;;17.50;100.00;101579.78;4987233;28;45592;-73
2022/10/05 02:09:52;;;;;;;;;5.00;5.00;;;;;17.51;100.00;101582.44;5034531;28;45303;-72
2022/10/05 02:12:20;;;;;;;;;6.33;6.33;;;;;17.50;100.00;101570.00;5018228;28;45767;-73
2022/10/05 02:14:54;;;;;;;;;5.00;5.00;;;;;17.54;100.00;101579.78;5034774;28;45464;-72
2022/10/05 02:17:29;;;;;;;;;3.00;3.00;;;;;17.53;100.00;101577.13;5018434;28;45323;-73
2022/10/05 02:20:05;;;;;;;;;7.00;4.00;;;;;17.55;100.00;101578.88;5034913;28;45519;-73
2022/10/05 02:22:48;;;;;;;;;4.00;4.00;;;;;17.57;100.00;101569.97;5017688;28;47769;-73
2022/10/05 02:25:20;;;;;;;;;6.00;4.00;;;;;17.57;100.00;101567.28;5039315;28;45306;-72
2022/10/05 02:27:55;;;;;;;;;5.33;4.00;;;;;17.60;100.00;101568.16;5021632;28;45467;-73
2022/10/05 02:30:21;;;;;;;;;4.67;4.67;;;;;17.60;100.00;101565.50;5021701;28;45417;-72
2022/10/05 02:33:07;;;;;;;;;4.00;4.00;;;;;17.61;100.00;101561.03;5021390;28;47242;-73
2022/10/05 02:35:32;;;;;;;;;4.00;4.00;;;;;17.61;100.00;101553.91;5032063;28;45244;-73
2022/10/05 02:38:00;;;;;;;;;3.67;3.67;;;;;17.61;100.00;101547.69;5038823;28;54474;-73
2022/10/05 02:40:37;;;;;;;;;4.00;4.00;;;;;17.61;100.00;101551.25;5041052;28;45434;-72
2022/10/05 02:43:21;;;;;;;;;5.33;3.00;;;;;17.61;100.00;101553.91;5036021;28;48435;-72
2022/10/05 02:46:11;;;;;;;;;4.00;4.00;;;;;17.59;100.00;101542.38;5038901;28;45194;-72
2022/10/05 02:49:02;;;;;;;;;3.67;3.67;;;;;17.54;100.00;101541.50;5039118;28;45394;-73
2022/10/05 02:51:28;;;;;;;;;5.00;4.00;;;;;17.58;100.00;101548.59;5038843;28;45449;-72
2022/10/05 02:54:21;;;;;;;;;4.33;4.33;;;;;17.59;100.00;101545.03;5021424;28;46224;-73
2022/10/05 02:57:17;;;;;;;;;3.67;2.67;;;;;17.59;100.00;101547.72;5038086;28;45140;-73
2022/10/05 02:59:48;;;;;;;;;4.00;2.00;;;;;17.59;100.00;101534.34;5036430;28;45498;-72
2022/10/05 03:02:21;;;;;;;;;4.00;2.00;;;;;17.59;100.00;101531.69;5038955;28;45577;-72
2022/10/05 03:05:05;;;;;;;;;4.00;2.00;;;;;17.63;100.00;101546.81;5038424;28;47855;-72
2022/10/05 03:07:52;;;;;;;;;5.67;3.00;;;;;17.65;100.00;101533.44;5038263;28;45467;-72
2022/10/05 03:10:27;;;;;;;;;2.00;2.00;;;;;17.63;100.00;101533.44;5011752;28;45412;-72
2022/10/05 03:13:16;;;;;;;;;4.00;2.00;;;;;17.64;100.00;101539.66;5021133;28;45521;-72
2022/10/05 03:15:47;;;;;;;;;3.67;3.67;;;;;17.61;100.00;101529.00;5033129;28;45911;-72
2022/10/05 03:18:55;;;;;;;;;2.67;2.67;;;;;17.57;100.00;101527.22;5038581;28;45467;-73
2022/10/05 03:21:50;;;;;;;;;1.33;1.33;;;;;17.56;100.00;101523.69;5038786;28;45501;-72
2022/10/05 03:24:21;;;;;;;;;2.00;2.00;;;;;17.53;100.00;101521.06;5012735;28;45351;-73
2022/10/05 03:27:17;;;;;;;;;4.00;3.00;;;;;17.51;100.00;101518.38;5038113;28;46813;-72
2022/10/05 03:29:54;;;;;;;;;3.00;2.00;;;;;17.50;100.00;101516.59;5002265;28;45473;-73
2022/10/05 03:32:44;;;;;;;;;4.00;1.67;;;;;17.49;100.00;101513.94;5037985;28;45458;-72
2022/10/05 03:35:19;;;;;;;;;5.00;2.00;;;;;17.45;100.00;101514.84;5037359;28;45273;-72
2022/10/05 03:38:00;;;;;;;;;3.67;3.00;;;;;17.42;100.00;101505.09;5036633;28;47380;-72
2022/10/05 03:40:40;;;;;;;;;2.00;2.00;;;;;17.36;100.00;101506.91;5038176;28;45564;-72
2022/10/05 03:43:33;;;;;;;;;2.00;2.00;;;;;17.34;100.00;101514.03;5042140;28;45417;-73
2022/10/05 03:46:16;;;;;;;;;2.00;2.00;;;;;17.28;100.00;101510.50;5038135;28;45474;-72
2022/10/05 03:49:19;;;;;;;;;2.00;2.00;;;;;17.24;100.00;101516.75;5037689;28;47769;-72
2022/10/05 03:51:47;;;;;;;;;2.33;2.33;;;;;17.19;100.00;101512.34;5034225;28;45448;-72
2022/10/05 03:54:23;;;;;;;;;3.00;3.00;;;;;17.12;100.00;101500.81;5036854;28;45237;-72
2022/10/05 03:56:56;;;;;;;;;3.00;3.00;;;;;17.14;100.00;101507.00;5019926;28;45641;-72
2022/10/05 03:59:26;;;;;;;;;3.00;3.00;;;;;17.11;100.00;101498.16;5014284;28;48408;-72
2022/10/05 04:02:00;;;;;;;;;3.00;3.00;;;;;17.09;100.00;101505.28;5036521;28;45481;-72
2022/10/05 04:04:32;;;;;;;;;5.00;3.67;;;;;17.06;100.00;101513.31;5019541;28;45409;-72
2022/10/05 04:06:59;;;;;;;;;2.00;2.00;;;;;16.99;100.00;101505.34;5020490;28;45356;-72
2022/10/05 04:09:36;;;;;;;;;2.00;2.00;;;;;16.97;100.00;101508.88;5036703;28;60507;-73
2022/10/05 04:12:24;;;;;;;;;3.33;3.00;;;;;16.96;100.00;101512.47;5019290;28;45436;-72
2022/10/05 04:14:54;;;;;;;;;3.00;3.00;;;;;16.93;100.00;101512.47;5026713;28;45306;-73
2022/10/05 04:17:37;;;;;;;;;3.00;3.00;;;;;16.90;100.00;101502.69;5036332;28;45235;-72
2022/10/05 04:20:06;;;;;;;;;5.00;4.00;;;;;16.84;100.00;101505.41;5019605;28;46624;-72
2022/10/05 04:22:38;;;;;;;;;3.33;3.00;;;;;16.83;100.00;101508.06;5043007;28;45356;-72
2022/10/05 04:25:14;;;;;;;;;7.00;4.00;;;;;16.76;100.00;101508.06;5033974;28;45395;-73
2022/10/05 04:27:44;;;;;;;;;5.33;5.33;;;;;16.76;100.00;101502.75;5037791;28;45272;-73
2022/10/05 04:30:17;;;;;;;;;4.00;4.00;;;;;16.74;100.00;101506.31;5018902;28;47529;-73
2022/10/05 04:32:46;;;;;;;;;5.33;4.33;;;;;16.71;100.00;101501.00;5019139;28;45416;-72
2022/10/05 04:35:39;;;;;;;;;6.67;5.00;;;;;16.72;100.00;101506.34;5036474;28;45326;-73
2022/10/05 04:38:19;;;;;;;;;6.00;4.33;;;;;16.71;100.00;101501.00;5035551;28;45344;-73
2022/10/05 04:41:03;;;;;;;;;3.33;3.33;;;;;16.73;100.00;101493.88;5037208;28;46843;-73
2022/10/05 04:43:32;;;;;;;;;3.67;3.00;;;;;16.71;100.00;101491.22;5016063;28;45951;-72
2022/10/05 04:46:28;;;;;;;;;5.67;4.00;;;;;16.67;100.00;101501.84;5035165;28;46348;-72
2022/10/05 04:49:12;;;;;;;;;5.00;4.67;;;;;16.63;100.00;101493.00;5029743;28;45411;-72
2022/10/05 04:52:03;;;;;;;;;4.33;4.33;;;;;16.61;100.00;101493.88;5029397;28;46951;-72
2022/10/05 04:54:55;;;;;;;;;3.00;3.00;;;;;16.54;100.00;101485.00;5017174;28;45390;-72
2022/10/05 04:57:28;;;;;;;;;6.00;3.33;;;;;16.55;100.00;101493.91;5033947;28;45379;-72
2022/10/05 05:00:07;;;;;;;;;6.00;5.00;;;;;16.54;100.00;101482.34;5033734;28;45494;-73
2022/10/05 05:02:46;;;;;;;;;4.00;3.00;;;;;16.47;100.00;101476.16;5014530;28;47226;-73
2022/10/05 05:05:33;;;;;;;;;2.67;2.00;;;;;16.45;100.00;101479.69;5032425;28;45462;-71
2022/10/05 05:08:10;;;;;;;;;6.67;4.00;;;;;16.43;100.00;101473.50;5018116;28;45579;-71
2022/10/05 05:10:47;;;;;;;;;4.00;4.00;;;;;16.41;100.00;101477.97;5034540;28;46402;-70
2022/10/05 05:13:48;;;;;;;;;5.00;4.00;;;;;16.37;100.00;101477.06;5032477;28;45755;-71
2022/10/05 05:16:25;;;;;;;;;3.33;3.33;;;;;16.35;100.00;101478.88;5031731;28;45796;-70
2022/10/05 05:19:18;;;;;;;;;3.67;3.67;;;;;16.33;100.00;101482.41;5033350;28;45541;-72
2022/10/05 05:22:03;;;;;;;;;5.00;4.00;;;;;16.27;100.00;101471.78;5038700;28;45591;-72
2022/10/05 05:24:28;;;;;;;;;3.67;3.67;;;;;16.28;100.00;101469.09;5018364;28;46817;-72
2022/10/05 05:27:03;;;;;;;;;3.00;3.00;;;;;16.26;100.00;101478.00;5035346;28;45403;-72
2022/10/05 05:29:54;;;;;;;;;5.67;3.33;;;;;16.24;100.00;101473.56;5016947;28;45559;-72
2022/10/05 05:33:11;;;;;;;;;3.00;3.00;;;;;16.23;100.00;101466.44;5015403;28;45506;-72
2022/10/05 05:36:07;;;;;;;;;5.00;4.00;;;;;16.21;100.00;101468.22;4956814;28;46879;-72
2022/10/05 05:38:43;;;;;;;;;3.00;3.00;;;;;16.21;100.00;101467.34;5033973;28;45402;-71
2022/10/05 05:41:21;;;;;;;;;4.67;4.00;;;;;16.18;100.00;101457.56;5035374;28;45721;-72
2022/10/05 05:44:10;;;;;;;;;5.67;5.67;;;;;16.16;100.00;101459.34;5034638;28;45483;-72
2022/10/05 05:46:41;;;;;;;;;4.67;2.67;;;;;16.13;100.00;101453.13;5034553;28;47472;-71
2022/10/05 05:49:21;;;;;;;;;3.00;3.00;;;;;16.14;100.00;101455.81;5025262;28;45457;-72
2022/10/05 05:52:04;;;;;;;;;4.00;4.00;;;;;16.14;100.00;101458.47;5025539;28;45521;-72
2022/10/05 05:54:39;;;;;;;;;4.67;4.00;;;;;16.12;100.00;101454.91;5013419;28;45478;-72
2022/10/05 05:57:14;;;;;;;;;2.33;2.33;;;;;16.12;100.00;101467.34;5024366;28;46840;-75
2022/10/05 06:00:04;;;;;;;;;5.00;3.67;;;;;16.12;100.00;101467.34;5035016;28;45474;-72
2022/10/05 06:03:00;;;;;;;;;4.00;4.00;;;;;16.11;100.00;101470.91;5037704;28;45273;-72
2022/10/05 06:05:41;;;;;;;;;5.67;3.33;;;;;16.10;100.00;101469.13;5012208;28;45642;-72
2022/10/05 06:08:15;;;;;;;;;5.33;4.33;;;;;16.08;100.00;101474.44;5035102;28;46597;-71
2022/10/05 06:10:52;;;;;;;;;5.00;5.00;;;;;16.08;100.00;101461.13;5032228;28;45596;-78
2022/10/05 06:13:23;;;;;;;;;5.67;5.67;;;;;16.08;100.00;101462.91;5017492;28;45556;-74
2022/10/05 06:15:56;;;;;;;;;5.67;4.33;;;;;16.06;100.00;101465.59;5034510;28;45577;-75
2022/10/05 06:18:22;;;;;;;;;5.00;5.00;;;;;16.06;100.00;101462.91;5018538;28;45794;-75
2022/10/05 06:21:25;;;;;;;;;7.00;6.00;;;;;16.05;100.00;101463.81;5033846;28;45569;-73
2022/10/05 06:23:59;;;;;;;;;8.00;4.00;;;;;16.04;100.00;101471.81;5025571;28;45535;-70
2022/10/05 06:26:38;;;;;;;;;3.00;3.00;;;;;16.04;100.00;101461.16;5016340;28;45381;-71
2022/10/05 06:29:09;;;;;;;;;5.33;5.00;;;;;16.02;100.00;101462.91;5016064;28;45862;-72
2022/10/05 06:31:57;;;;;;;;;0.33;0.33;;;;;15.89;100.00;101462.94;5017604;28;45495;-73
2022/10/05 06:34:41;;;;;;;;;4.00;4.00;;;;;15.83;100.00;101478.03;5036578;28;45467;-73
2022/10/05 06:37:15;;;;;;;;;0.00;0.00;;;;;15.77;100.00;101465.63;5028352;28;45408;-72
2022/10/05 06:40:08;;;;;;;;;4.67;3.67;;;;;15.71;100.00;101471.84;5037714;28;46391;-73
2022/10/05 06:42:59;;;;;;;;;9.00;6.00;;;;;15.69;100.00;101465.59;5029581;28;45478;-72
2022/10/05 06:45:47;;;;;;;;;4.00;4.00;;;;;15.64;100.00;101471.81;5030369;28;45297;-72
2022/10/05 06:48:43;;;;;;;;;7.00;5.00;;;;;15.62;100.00;101468.25;5030867;28;45703;-73
2022/10/05 06:51:23;;;;;;;;;4.33;4.33;;;;;15.57;100.00;101465.56;5032724;28;45909;-73
2022/10/05 06:53:55;;;;;;;;;7.33;6.00;;;;;15.59;100.00;101471.78;5033619;28;45524;-73
2022/10/05 06:56:34;;;;;;;;;6.00;6.00;;;;;15.54;100.00;101460.22;5017417;28;45569;-72
2022/10/05 06:59:29;;;;;;;;;8.67;5.00;;;;;15.56;100.00;101462.94;5019048;28;45225;-73
2022/10/05 07:02:07;;;;;;;;;7.00;7.00;;;;;15.53;100.00;101466.44;5027219;28;46091;-73
2022/10/05 07:05:10;;;;;;;;;4.00;4.00;;;;;15.54;100.00;101472.66;5035103;28;45512;-71
2022/10/05 07:08:08;;;;;;;;;4.00;4.00;;;;;15.62;100.00;101478.91;5037584;28;45469;-72
2022/10/05 07:11:18;;;;;;;;;6.00;6.00;;;;;15.68;100.00;101476.25;5012338;28;45658;-72
2022/10/05 07:14:02;;;;;;;;;8.00;5.00;;;;;15.74;100.00;101475.38;5016838;28;46231;-72
2022/10/05 07:16:46;;;;;;;;;5.00;4.00;;;;;15.79;100.00;101465.63;5024091;28;45542;-72
2022/10/05 07:19:35;;;;;;;;;6.00;6.00;;;;;15.88;100.00;101481.59;5036763;28;46067;-74
2022/10/05 07:22:35;;;;;;;;;3.00;3.00;;;;;15.95;100.00;101486.03;5040043;28;45607;-72
2022/10/05 07:25:34;;;;;;;;;4.67;4.67;;;;;16.02;100.00;101487.78;5022466;28;46564;-72
2022/10/05 07:28:34;;;;;;;;;5.00;5.00;;;;;16.09;100.00;101483.34;5018674;28;45936;-72
2022/10/05 07:31:20;;;;;;;;;4.00;4.00;;;;;16.14;100.00;101490.44;5019714;28;45634;-72
2022/10/05 07:33:49;;;;;;;;;5.33;4.67;;;;;16.18;100.00;101493.97;5035962;28;45643;-72
2022/10/05 07:39:35;;;;;;;;;4.00;4.00;;;;;16.21;100.00;101496.66;5009931;28;46037;-73
2022/10/05 07:42:39;;;;;;;;;5.67;5.00;;;;;16.23;100.00;101498.41;5018172;28;45466;-73
2022/10/05 07:45:26;;;;;;;;;5.00;5.00;;;;;16.26;100.00;101496.66;5028911;28;45438;-71
2022/10/05 07:48:20;;;;;;;;;3.00;3.00;;;;;16.28;100.00;101500.19;5032976;28;45526;-74
2022/10/05 07:50:58;;;;;;;;;5.00;3.33;;;;;16.35;100.00;101509.94;5017113;28;45366;-72
2022/10/05 07:53:53;;;;;;;;;5.33;5.33;;;;;16.40;100.00;101505.47;5025734;28;45375;-71
2022/10/05 07:56:35;;;;;;;;;4.33;4.33;;;;;16.40;100.00;101513.47;5002406;28;45532;-72
2022/10/05 07:59:27;;;;;;;;;5.00;5.00;;;;;16.44;100.00;101505.47;5016770;28;45651;-72
2022/10/05 08:02:01;;;;;;;;;3.33;3.00;;;;;16.51;100.00;101519.66;5015706;28;45515;-72
2022/10/05 08:04:30;;;;;;;;;2.33;2.33;;;;;16.60;100.00;101510.78;5017350;28;45741;-72
2022/10/05 08:06:58;;;;;;;;;3.00;3.00;;;;;16.67;100.00;101518.78;5035697;28;45241;-74
2022/10/05 08:09:24;;;;;;;;;4.33;3.33;;;;;16.71;100.00;101515.22;5022194;28;46834;-72
2022/10/05 08:12:01;;;;;;;;;3.00;3.00;;;;;16.76;100.00;101529.41;5031487;28;45486;-72
2022/10/05 08:14:48;;;;;;;;;3.00;3.00;;;;;16.78;100.00;101518.75;5034065;28;45538;-71
2022/10/05 08:17:25;;;;;;;;;4.67;4.00;;;;;16.77;100.00;101501.84;5027219;28;45428;-73
2022/10/05 08:20:22;;;;;;;;;4.00;4.00;;;;;16.87;100.00;101515.16;5027927;28;46980;-72
2022/10/05 08:22:58;;;;;;;;;3.00;3.00;;;;;16.89;100.00;101506.28;5029223;28;46465;-72
2022/10/05 08:25:25;;;;;;;;;2.67;2.67;;;;;16.97;100.00;101509.78;5017605;28;45781;-72
2022/10/05 08:27:56;;;;;;;;;3.00;3.00;;;;;17.07;100.00;101502.63;5035611;28;46529;-71
2022/10/05 08:30:21;;;;;;;;;3.00;3.00;;;;;17.23;100.00;101506.09;5015646;28;46064;-72
2022/10/05 08:33:01;;;;;;;;;4.00;4.00;;;;;17.35;100.00;101505.13;5032738;28;45585;-72
2022/10/05 08:35:37;;;;;;;;;10.33;7.00;;;;;17.45;100.00;101513.06;5015835;28;45487;-73
2022/10/05 08:38:10;;;;;;;;;5.67;5.67;;;;;17.61;100.00;101512.97;5040936;28;45562;-71
2022/10/05 08:41:02;;;;;;;;;6.00;3.00;;;;;17.72;100.00;101517.38;5032370;28;46534;-70
2022/10/05 08:43:43;;;;;;;;;5.00;4.00;;;;;17.81;100.00;101527.09;5026408;28;45399;-72
2022/10/05 08:46:17;;;;;;;;;7.33;4.00;;;;;17.83;100.00;101516.41;5028650;28;45429;-72
2022/10/05 08:49:08;;;;;;;;;4.67;4.67;;;;;17.86;100.00;101519.06;5027747;28;45506;-72
2022/10/05 08:51:52;;;;;;;;;2.67;2.67;;;;;17.89;100.00;101511.88;5012369;28;46759;-71
2022/10/05 08:54:29;;;;;;;;;4.33;3.00;;;;;17.97;100.00;101525.19;5029147;28;45464;-71
2022/10/05 08:56:55;;;;;;;;;3.00;3.00;;;;;18.05;100.00;101520.66;5014477;28;45612;-73
2022/10/05 08:59:38;;;;;;;;;8.00;4.00;;;;;18.11;100.00;101528.66;5034550;28;45745;-74
2022/10/05 09:02:31;;;;;;;;;4.67;3.00;;;;;18.18;100.00;101538.38;5013978;28;46856;-72
2022/10/05 09:05:23;;;;;;;;;6.00;5.00;;;;;18.28;100.00;101528.47;5033419;28;45465;-71
2022/10/05 09:07:48;;;;;;;;;5.00;3.00;;;;;18.36;100.00;101533.75;5017400;28;45419;-73
2022/10/05 09:10:29;;;;;;;;;3.00;3.00;;;;;18.42;100.00;101531.88;5033600;28;45279;-72
2022/10/05 09:13:18;;;;;;;;;5.00;4.00;;;;;18.50;100.00;101538.06;5030984;28;47511;-73
2022/10/05 09:15:59;;;;;;;;;5.00;4.00;;;;;18.58;100.00;101535.28;5016720;28;45536;-72
2022/10/05 09:18:36;;;;;;;;;8.00;5.00;;;;;18.69;100.00;101529.84;5036158;28;45197;-73
2022/10/05 09:21:13;;;;;;;;;4.33;4.33;;;;;18.74;100.00;101536.03;5038970;28;45431;-72
2022/10/05 09:23:41;;;;;;;;;4.67;4.00;;;;;18.76;100.00;101529.78;5018788;28;45912;-73
2022/10/05 09:26:28;;;;;;;;;4.67;4.00;;;;;18.82;100.00;101537.72;5035806;28;45376;-73
2022/10/05 09:29:18;;;;;;;;;5.67;3.33;;;;;18.84;100.00;101540.38;5034123;28;45528;-73
2022/10/05 09:31:54;;;;;;;;;3.33;3.33;;;;;18.76;100.00;101532.47;5031602;28;45573;-73
2022/10/05 09:34:35;;;;;;;;;2.00;2.00;;;;;18.75;100.00;101533.38;5028049;28;46372;-73
2022/10/05 09:37:43;;;;;;;;;3.00;3.00;;;;;18.74;100.00;101534.25;5035224;28;45415;-73
2022/10/05 09:40:47;;;;;;;;;4.00;2.00;;;;;18.78;100.00;101537.78;5004756;28;45409;-73
2022/10/05 09:43:30;;;;;;;;;3.33;3.33;;;;;18.85;100.00;101555.53;4988479;28;45528;-73
2022/10/05 09:46:20;;;;;;;;;4.67;3.00;;;;;18.83;100.00;101547.53;5033318;28;47562;-73
2022/10/05 09:48:57;;;;;;;;;4.33;3.67;;;;;18.82;100.00;101548.44;5033114;28;45545;-73
2022/10/05 09:52:05;;;;;;;;;5.00;3.00;;;;;18.83;100.00;101538.63;5033628;28;45485;-73
2022/10/05 09:55:07;;;;;;;;;2.00;2.00;;;;;18.84;100.00;101553.75;5031875;28;46052;-72
2022/10/05 09:57:42;;;;;;;;;6.00;3.33;;;;;18.84;100.00;101543.94;5035388;28;45599;-74
2022/10/05 10:00:26;;;;;;;;;3.33;3.00;;;;;18.80;100.00;101542.22;5032833;28;45427;-72
2022/10/05 10:03:09;;;;;;;;;4.00;2.33;;;;;18.79;100.00;101556.47;5032492;28;45269;-73
2022/10/05 10:05:55;;;;;;;;;3.33;2.67;;;;;18.72;100.00;101552.13;5034488;28;45368;-70
2022/10/05 10:08:31;;;;;;;;;5.00;3.00;;;;;18.71;100.00;101549.47;5033989;28;45877;-70
2022/10/05 10:11:23;;;;;;;;;4.33;3.33;;;;;18.77;100.00;101544.03;5017810;28;45515;-71
2022/10/05 10:14:09;;;;;;;;;3.00;3.00;;;;;18.91;100.00;101541.19;5028778;28;45639;-72
2022/10/05 10:16:59;;;;;;;;;2.33;2.33;;;;;19.01;100.00;101538.38;5031575;28;45814;-71
2022/10/05 10:19:43;;;;;;;;;2.00;2.00;;;;;19.11;100.00;101537.34;5032851;28;47517;-73
2022/10/05 10:22:31;;;;;;;;;3.00;3.00;;;;;19.18;100.00;101532.84;5030641;28;45372;-73
2022/10/05 10:25:09;;;;;;;;;2.00;2.00;;;;;19.22;100.00;101526.50;5018550;28;45572;-71
2022/10/05 10:27:38;;;;;;;;;2.00;2.00;;;;;19.27;100.00;101523.78;5011681;28;45464;-71
2022/10/05 10:30:22;;;;;;;;;1.67;1.67;;;;;19.35;100.00;101522.78;5032723;28;47145;-72
2022/10/05 10:33:20;;;;;;;;;1.67;1.67;;;;;19.44;100.00;101519.09;5033097;28;45324;-74
2022/10/05 10:35:59;;;;;;;;;2.00;2.00;;;;;19.55;100.00;101513.56;4999553;28;45508;-73
2022/10/05 10:38:33;;;;;;;;;1.00;1.00;;;;;19.59;100.00;101523.34;5015569;28;45496;-73
2022/10/05 10:41:17;;;;;;;;;1.33;1.33;;;;;19.62;100.00;101532.22;5033325;28;47353;-74
2022/10/05 10:44:21;;;;;;;;;3.00;1.67;;;;;19.66;100.00;101511.63;5030511;28;45481;-73
2022/10/05 10:46:56;;;;;;;;;2.67;2.67;;;;;19.75;100.00;101511.47;5033869;28;45415;-75
2022/10/05 10:49:30;;;;;;;;;1.33;1.33;;;;;19.84;100.00;101510.44;5036068;28;45577;-72
2022/10/05 10:52:05;;;;;;;;;1.00;1.00;;;;;19.89;100.00;101503.22;5034884;28;46699;-73
2022/10/05 10:54:53;;;;;;;;;3.67;2.00;;;;;20.01;100.00;101499.44;5034077;28;45518;-74
2022/10/05 10:57:30;;;;;;;;;1.00;1.00;;;;;20.10;100.00;101491.25;5019332;28;45552;-73
2022/10/05 10:59:58;;;;;;;;;2.67;1.00;;;;;20.17;100.00;101490.22;5020246;28;45459;-73
2022/10/05 11:02:45;;;;;;;;;1.33;1.33;;;;;20.18;100.00;101483.03;5034803;28;46622;-73
2022/10/05 11:05:19;;;;;;;;;2.33;1.67;;;;;20.07;100.00;101467.16;5034889;28;45384;-72
2022/10/05 11:07:51;;;;;;;;;1.33;1.33;;;;;20.00;100.00;101461.03;5036728;28;45441;-73
2022/10/05 11:10:45;;;;;;;;;3.00;2.00;;;;;19.96;100.00;101461.97;5037455;28;45301;-73
2022/10/05 11:13:33;;;;;;;;;1.00;1.00;;;;;19.85;100.00;101454.13;5033963;28;46475;-72
2022/10/05 11:16:07;;;;;;;;;1.00;1.00;;;;;19.80;100.00;101445.28;5026000;28;45547;-73
2022/10/05 11:19:10;;;;;;;;;3.00;2.00;;;;;19.79;100.00;101438.16;5036680;28;45316;-73
2022/10/05 11:22:04;;;;;;;;;2.00;2.00;;;;;19.76;100.00;101440.91;5038891;28;45453;-73
2022/10/05 11:24:37;;;;;;;;;2.00;2.00;;;;;19.76;100.00;101430.19;5008196;28;46883;-73
2022/10/05 11:27:24;;;;;;;;;2.00;2.00;;;;;19.83;100.00;101433.66;5037796;28;45460;-73
2022/10/05 11:30:25;;;;;;;;;1.67;1.67;;;;;19.85;100.00;101435.38;5031446;28;45441;-73
2022/10/05 11:33:11;;;;;;;;;1.00;1.00;;;;;19.92;100.00;101433.50;4976219;28;45555;-73
2022/10/05 11:36:07;;;;;;;;;3.00;1.33;;;;;19.98;100.00;101432.50;5033846;28;47441;-73
2022/10/05 11:39:02;;;;;;;;;1.00;1.00;;;;;19.99;100.00;101450.34;5020344;28;45917;-73
2022/10/05 11:41:49;;;;;;;;;1.00;1.00;;;;;20.02;100.00;101435.06;5036047;28;45362;-72
2022/10/05 11:44:58;;;;;;;;;4.33;1.00;;;;;20.04;100.00;101443.09;5035127;28;45565;-73
2022/10/05 11:47:27;;;;;;;;;1.00;1.00;;;;;20.08;100.00;101442.09;5030651;28;46092;-73
2022/10/05 11:50:12;;;;;;;;;1.00;1.00;;;;;20.14;100.00;101433.97;5019724;28;45444;-73
2022/10/05 11:52:37;;;;;;;;;1.00;1.00;;;;;20.19;100.00;101439.22;5030495;28;45494;-73
2022/10/05 11:55:08;;;;;;;;;1.00;1.00;;;;;20.24;100.00;101440.94;5037316;28;45426;-73
2022/10/05 11:57:49;;;;;;;;;3.00;1.00;;;;;20.28;100.00;101426.53;5031258;28;45551;-73
2022/10/05 12:00:31;;;;;;;;;3.00;1.00;;;;;20.35;100.00;101438.03;5013085;28;45494;-73
2022/10/05 12:03:02;;;;;;;;;2.00;1.00;;;;;20.41;100.00;101432.53;5017459;28;45482;-72
2022/10/05 12:05:41;;;;;;;;;1.00;1.00;;;;;20.46;100.00;101422.66;5033102;28;45493;-73
2022/10/05 12:08:41;;;;;;;;;1.67;1.67;;;;;20.50;100.00;101423.44;5018119;28;45576;-72
2022/10/05 12:11:25;;;;;;;;;2.00;2.00;;;;;20.58;100.00;101424.19;5020881;28;45469;-73
2022/10/05 12:14:01;;;;;;;;;1.33;1.33;;;;;20.64;100.00;101416.88;5021073;28;45582;-73
2022/10/05 12:16:48;;;;;;;;;3.00;1.00;;;;;20.76;100.00;101417.53;5022434;28;45532;-72
2022/10/05 12:19:17;;;;;;;;;1.67;1.00;;;;;20.85;100.00;101420.03;5034002;28;45947;-73
2022/10/05 12:21:47;;;;;;;;;1.67;1.67;;;;;20.97;100.00;101418.84;5039374;28;45424;-72
2022/10/05 12:24:28;;;;;;;;;3.00;1.00;;;;;21.12;100.00;101418.50;5017477;28;45519;-72